Time;durP1;ratioP1;P1;durP2;ratioP2;P2;SDS_P1;SDS_P2;PMS_P1;PMS_P2;Temp;Humidity;BMP_temperature;BMP_pressure;BME280_temperature;BME280_humidity;BME280_pressure;Samples;Min_cycle;Max_cycle;Signal;HPM_P1;HPM_P2
2022/01/07 00:01:49;;;;;;;;;30.75;26.50;;;;;;;;5056513;28;47874;-73
2022/01/07 00:04:14;;;;;;;;;64.25;49.25;;;;;;;;5057442;28;45581;-73
2022/01/07 00:06:39;;;;;;;;;47.75;40.25;;;;;;;;5058458;28;45255;-73
2022/01/07 00:09:05;;;;;;;;;21.25;17.75;;;;;;;;5057914;28;45442;-73
2022/01/07 00:11:30;;;;;;;;;17.25;15.00;;;;;;;;5057557;28;46436;-74
2022/01/07 00:13:55;;;;;;;;;13.50;13.25;;;;;;;;5057879;28;45302;-74
2022/01/07 00:16:21;;;;;;;;;13.25;11.50;;;;;;;;5058024;28;45381;-73
2022/01/07 00:18:46;;;;;;;;;10.75;10.75;;;;;;;;5058134;28;45358;-73
2022/01/07 00:21:12;;;;;;;;;18.25;15.00;;;;;;;;5057602;28;46158;-73
2022/01/07 00:23:37;;;;;;;;;20.50;17.00;;;;;;;;5057756;28;45560;-74
2022/01/07 00:26:03;;;;;;;;;17.50;14.75;;;;;;;;5057832;28;45252;-73
2022/01/07 00:28:28;;;;;;;;;16.25;14.00;;;;;;;;5057957;28;45383;-73
2022/01/07 00:30:53;;;;;;;;;18.25;16.50;;;;;;;;5057450;28;46425;-73
2022/01/07 00:33:19;;;;;;;;;21.50;20.50;;;;;;;;5057255;28;45492;-73
2022/01/07 00:35:44;;;;;;;;;26.50;25.00;;;;;;;;5057519;28;45635;-74
2022/01/07 00:38:10;;;;;;;;;21.75;20.25;;;;;;;;5058497;28;45182;-73
2022/01/07 00:40:35;;;;;;;;;39.50;35.00;;;;;;;;5057723;28;45228;-73
2022/01/07 00:43:00;;;;;;;;;20.50;18.50;;;;;;;;5057406;28;45460;-73
2022/01/07 00:45:26;;;;;;;;;16.25;14.75;;;;;;;;5057405;28;45769;-73
2022/01/07 00:47:54;;;;;;;;;21.50;16.25;;;;;;;;5057597;28;45245;-73
2022/01/07 00:50:20;;;;;;;;;17.25;13.75;;;;;;;;5057380;28;46108;-74
2022/01/07 00:52:46;;;;;;;;;17.25;14.25;;;;;;;;5057281;28;45408;-73
2022/01/07 00:55:11;;;;;;;;;16.25;15.00;;;;;;;;5057701;28;45369;-73
2022/01/07 00:57:37;;;;;;;;;17.00;15.50;;;;;;;;5056254;28;45463;-74
2022/01/07 01:00:07;;;;;;;;;13.00;12.00;;;;;;;;5056860;28;46006;-73
2022/01/07 01:02:32;;;;;;;;;10.75;10.75;;;;;;;;5038101;28;45574;-74
2022/01/07 01:04:58;;;;;;;;;17.00;13.00;;;;;;;;5037040;28;45742;-74
2022/01/07 01:07:23;;;;;;;;;12.75;10.25;;;;;;;;5037070;28;45400;-73
2022/01/07 01:09:48;;;;;;;;;14.25;12.50;;;;;;;;5037011;28;45350;-74
2022/01/07 01:12:13;;;;;;;;;8.50;5.50;;;;;;;;5037087;28;45314;-74
2022/01/07 01:14:39;;;;;;;;;6.00;6.00;;;;;;;;5037291;28;45691;-73
2022/01/07 01:17:05;;;;;;;;;5.50;5.00;;;;;;;;5037327;28;45267;-73
2022/01/07 01:19:30;;;;;;;;;8.00;5.00;;;;;;;;5036899;28;46031;-74
2022/01/07 01:21:56;;;;;;;;;7.25;7.25;;;;;;;;5036404;28;45402;-73
2022/01/07 01:24:22;;;;;;;;;8.00;8.00;;;;;;;;5036928;28;45435;-74
2022/01/07 01:26:47;;;;;;;;;11.00;10.75;;;;;;;;5037047;28;45469;-73
2022/01/07 01:29:13;;;;;;;;;9.00;8.00;;;;;;;;5037744;28;46087;-74
2022/01/07 01:31:38;;;;;;;;;8.00;6.50;;;;;;;;5037305;28;45628;-74
2022/01/07 01:34:04;;;;;;;;;12.00;8.00;;;;;;;;5037650;28;45332;-74
2022/01/07 01:36:29;;;;;;;;;8.00;6.00;;;;;;;;5036903;28;45299;-74
2022/01/07 01:38:54;;;;;;;;;5.00;5.00;;;;;;;;5036646;28;45827;-73
2022/01/07 01:41:20;;;;;;;;;6.00;6.00;;;;;;;;5036498;28;45465;-73
2022/01/07 01:43:48;;;;;;;;;8.50;6.50;;;;;;;;5036874;28;45362;-73
2022/01/07 01:46:14;;;;;;;;;8.50;5.75;;;;;;;;5037063;28;45342;-74
2022/01/07 01:48:39;;;;;;;;;5.00;4.00;;;;;;;;5036205;28;46146;-73
2022/01/07 01:51:06;;;;;;;;;4.75;4.75;;;;;;;;5039692;28;45392;-74
2022/01/07 01:53:32;;;;;;;;;2.00;2.00;;;;;;;;5040326;28;45789;-74
2022/01/07 01:55:58;;;;;;;;;2.00;2.00;;;;;;;;5039958;28;45350;-73
2022/01/07 01:58:23;;;;;;;;;3.25;3.25;;;;;;;;5039738;28;45399;-74
2022/01/07 02:00:48;;;;;;;;;3.75;3.75;;;;;;;;5040407;28;45607;-73
2022/01/07 02:03:14;;;;;;;;;4.00;4.00;;;;;;;;5040693;28;45555;-73
2022/01/07 02:05:39;;;;;;;;;2.00;1.50;;;;;;;;5041004;28;45465;-73
2022/01/07 02:08:04;;;;;;;;;1.50;1.50;;;;;;;;5039552;28;46142;-73
2022/01/07 02:10:30;;;;;;;;;1.00;1.00;;;;;;;;5039668;28;45529;-74
2022/01/07 02:12:55;;;;;;;;;2.00;2.00;;;;;;;;5038495;28;45229;-73
2022/01/07 02:15:21;;;;;;;;;2.00;1.00;;;;;;;;5039800;28;45316;-74
2022/01/07 02:17:47;;;;;;;;;2.75;2.00;;;;;;;;5039492;28;45965;-74
2022/01/07 02:20:14;;;;;;;;;2.50;2.00;;;;;;;;5039782;28;45522;-75
2022/01/07 02:22:40;;;;;;;;;4.00;4.00;;;;;;;;5039590;28;45345;-73
2022/01/07 02:25:05;;;;;;;;;3.75;3.25;;;;;;;;5039596;28;45492;-74
2022/01/07 02:27:34;;;;;;;;;3.25;2.00;;;;;;;;5039127;28;45398;-74
2022/01/07 02:30:00;;;;;;;;;2.00;2.00;;;;;;;;5039426;28;45292;-73
2022/01/07 02:32:25;;;;;;;;;1.75;1.75;;;;;;;;5039225;28;45473;-73
2022/01/07 02:34:50;;;;;;;;;2.00;2.00;;;;;;;;5039437;28;45444;-73
2022/01/07 02:37:16;;;;;;;;;5.00;2.00;;;;;;;;5039488;28;45238;-74
2022/01/07 02:39:41;;;;;;;;;3.50;1.50;;;;;;;;5039371;28;45428;-74
2022/01/07 02:42:07;;;;;;;;;4.00;2.50;;;;;;;;5039081;28;45511;-74
2022/01/07 02:44:33;;;;;;;;;3.00;2.00;;;;;;;;5039065;28;45313;-73
2022/01/07 02:46:58;;;;;;;;;4.75;3.00;;;;;;;;5038425;28;45398;-73
2022/01/07 02:49:23;;;;;;;;;5.00;4.25;;;;;;;;5038985;28;45316;-73
2022/01/07 02:51:49;;;;;;;;;2.00;2.00;;;;;;;;5039466;28;45483;-73
2022/01/07 02:54:14;;;;;;;;;4.50;3.25;;;;;;;;5038319;28;45910;-73
2022/01/07 02:56:40;;;;;;;;;2.75;2.00;;;;;;;;5038943;28;45371;-74
2022/01/07 02:59:07;;;;;;;;;4.00;2.00;;;;;;;;5039256;28;45438;-73
2022/01/07 03:01:32;;;;;;;;;2.00;2.00;;;;;;;;5038002;28;45228;-74
2022/01/07 03:03:58;;;;;;;;;2.00;2.00;;;;;;;;5038943;28;45304;-73
2022/01/07 03:06:23;;;;;;;;;1.50;1.00;;;;;;;;5038792;28;46122;-73
2022/01/07 03:08:50;;;;;;;;;1.00;1.00;;;;;;;;5038892;28;45500;-74
2022/01/07 03:11:16;;;;;;;;;4.00;2.00;;;;;;;;5038941;28;45380;-73
2022/01/07 03:13:41;;;;;;;;;1.50;1.00;;;;;;;;5038662;28;45532;-73
2022/01/07 03:16:06;;;;;;;;;2.00;2.00;;;;;;;;5038238;28;45430;-73
2022/01/07 03:18:32;;;;;;;;;2.00;2.00;;;;;;;;5038236;28;45494;-74
2022/01/07 03:20:58;;;;;;;;;1.00;1.00;;;;;;;;5037175;28;45539;-73
2022/01/07 03:23:24;;;;;;;;;4.00;2.00;;;;;;;;5038810;28;45490;-74
2022/01/07 03:25:49;;;;;;;;;1.50;1.50;;;;;;;;5038413;28;45874;-74
2022/01/07 03:28:14;;;;;;;;;3.75;2.00;;;;;;;;5038058;28;45497;-73
2022/01/07 03:30:40;;;;;;;;;2.00;2.00;;;;;;;;5038348;28;45331;-73
2022/01/07 03:33:07;;;;;;;;;1.25;1.00;;;;;;;;5038531;28;45421;-73
2022/01/07 03:35:32;;;;;;;;;0.00;0.00;;;;;;;;5037903;28;46802;-73
2022/01/07 03:37:58;;;;;;;;;2.00;1.00;;;;;;;;5037949;28;45283;-73
2022/01/07 03:40:23;;;;;;;;;3.25;1.50;;;;;;;;5038120;28;45537;-72
2022/01/07 03:42:50;;;;;;;;;1.00;1.00;;;;;;;;5038368;28;45226;-73
2022/01/07 03:45:16;;;;;;;;;1.25;1.00;;;;;;;;5037907;28;45303;-73
2022/01/07 03:47:42;;;;;;;;;1.00;1.00;;;;;;;;5038015;28;45211;-73
2022/01/07 03:50:08;;;;;;;;;1.00;1.00;;;;;;;;5036732;28;45409;-74
2022/01/07 03:52:34;;;;;;;;;1.00;1.00;;;;;;;;5038584;28;45385;-73
2022/01/07 03:55:00;;;;;;;;;1.00;0.50;;;;;;;;5037578;28;45487;-74
2022/01/07 03:57:25;;;;;;;;;1.00;1.00;;;;;;;;5036417;28;45316;-73
2022/01/07 03:59:50;;;;;;;;;0.75;0.75;;;;;;;;5036856;28;45490;-73
2022/01/07 04:02:17;;;;;;;;;1.00;0.75;;;;;;;;5038252;28;45395;-73
2022/01/07 04:04:42;;;;;;;;;0.00;0.00;;;;;;;;5037521;28;45449;-73
2022/01/07 04:07:07;;;;;;;;;1.00;1.00;;;;;;;;5037483;28;45509;-73
2022/01/07 04:09:33;;;;;;;;;0.00;0.00;;;;;;;;5037967;28;45473;-73
2022/01/07 04:11:59;;;;;;;;;1.00;1.00;;;;;;;;5037951;28;45362;-73
2022/01/07 04:14:25;;;;;;;;;2.00;1.00;;;;;;;;5036934;28;46665;-73
2022/01/07 04:16:51;;;;;;;;;0.00;0.00;;;;;;;;5037968;28;45190;-73
2022/01/07 04:19:17;;;;;;;;;1.00;0.50;;;;;;;;5037521;28;45542;-72
2022/01/07 04:21:42;;;;;;;;;1.50;1.00;;;;;;;;5037810;28;45314;-73
2022/01/07 04:24:07;;;;;;;;;0.50;0.50;;;;;;;;5037412;28;45409;-73
2022/01/07 04:26:33;;;;;;;;;1.00;1.00;;;;;;;;5037223;28;45284;-72
2022/01/07 04:28:58;;;;;;;;;1.00;1.00;;;;;;;;5037406;28;45371;-73
2022/01/07 04:31:24;;;;;;;;;9.25;8.50;;;;;;;;5037779;28;45430;-73
2022/01/07 04:33:49;;;;;;;;;5.00;3.00;;;;;;;;5036991;28;45535;-73
2022/01/07 04:36:15;;;;;;;;;1.00;1.00;;;;;;;;5037355;28;45488;-74
2022/01/07 04:38:40;;;;;;;;;2.25;2.00;;;;;;;;5037474;28;45462;-73
2022/01/07 04:41:05;;;;;;;;;6.25;5.25;;;;;;;;5037469;28;45457;-73
2022/01/07 04:43:31;;;;;;;;;5.75;5.25;;;;;;;;5037044;28;46011;-73
2022/01/07 04:45:56;;;;;;;;;6.00;3.00;;;;;;;;5037138;28;45352;-73
2022/01/07 04:48:21;;;;;;;;;3.00;3.00;;;;;;;;5037331;28;45461;-73
2022/01/07 04:50:47;;;;;;;;;5.00;4.50;;;;;;;;5037517;28;45366;-72
2022/01/07 04:53:12;;;;;;;;;1.00;1.00;;;;;;;;5036891;28;45430;-73
2022/01/07 04:55:38;;;;;;;;;3.00;2.00;;;;;;;;5036910;28;45448;-72
2022/01/07 04:58:08;;;;;;;;;3.00;1.50;;;;;;;;5037220;28;45335;-74
2022/01/07 05:00:34;;;;;;;;;1.50;1.50;;;;;;;;5037228;28;45480;-73
2022/01/07 05:02:59;;;;;;;;;2.00;2.00;;;;;;;;5036587;28;45249;-73
2022/01/07 05:05:25;;;;;;;;;0.75;0.75;;;;;;;;5037018;28;45362;-74
2022/01/07 05:07:50;;;;;;;;;0.50;0.25;;;;;;;;5036979;28;45501;-73
2022/01/07 05:10:15;;;;;;;;;2.75;1.00;;;;;;;;5036858;28;46202;-73
2022/01/07 05:12:42;;;;;;;;;0.75;0.00;;;;;;;;5036477;28;45545;-73
2022/01/07 05:15:08;;;;;;;;;1.00;0.25;;;;;;;;5036834;28;45444;-73
2022/01/07 05:17:33;;;;;;;;;1.00;1.00;;;;;;;;5036707;28;45510;-73
2022/01/07 05:19:59;;;;;;;;;1.00;0.00;;;;;;;;5035623;28;45534;-74
2022/01/07 05:22:24;;;;;;;;;1.00;1.00;;;;;;;;5036769;28;46095;-74
2022/01/07 05:24:50;;;;;;;;;1.00;0.75;;;;;;;;5038387;28;45433;-74
2022/01/07 05:27:15;;;;;;;;;0.00;0.00;;;;;;;;5040150;28;45520;-74
2022/01/07 05:29:40;;;;;;;;;1.00;1.00;;;;;;;;5040373;28;45263;-73
2022/01/07 05:32:06;;;;;;;;;1.00;1.00;;;;;;;;5049552;28;45440;-73
2022/01/07 05:34:31;;;;;;;;;1.00;1.00;;;;;;;;5047081;28;45367;-73
2022/01/07 05:36:57;;;;;;;;;0.75;0.50;;;;;;;;5049093;28;45316;-73
2022/01/07 05:39:22;;;;;;;;;1.00;1.00;;;;;;;;5049330;28;45302;-73
2022/01/07 05:41:48;;;;;;;;;0.00;0.00;;;;;;;;5047282;28;45905;-73
2022/01/07 05:44:13;;;;;;;;;3.00;2.00;;;;;;;;5049059;28;45349;-73
2022/01/07 05:46:38;;;;;;;;;3.00;2.00;;;;;;;;5047920;28;45339;-73
2022/01/07 05:49:04;;;;;;;;;3.50;3.50;;;;;;;;5047757;28;45365;-73
2022/01/07 05:51:29;;;;;;;;;5.50;4.50;;;;;;;;5048992;28;46177;-74
2022/01/07 05:53:54;;;;;;;;;0.00;0.00;;;;;;;;5047931;28;45319;-73
2022/01/07 05:56:20;;;;;;;;;2.75;0.25;;;;;;;;5048203;28;45464;-73
2022/01/07 05:58:45;;;;;;;;;2.00;1.25;;;;;;;;5049153;28;45551;-73
2022/01/07 06:01:12;;;;;;;;;1.00;1.00;;;;;;;;5046686;28;46337;-73
2022/01/07 06:03:37;;;;;;;;;0.25;0.25;;;;;;;;5048648;28;45630;-73
2022/01/07 06:06:03;;;;;;;;;3.00;2.00;;;;;;;;5048553;28;45469;-73
2022/01/07 06:08:28;;;;;;;;;1.00;1.00;;;;;;;;5047272;28;45476;-74
2022/01/07 06:10:54;;;;;;;;;2.00;1.00;;;;;;;;5048871;28;46131;-73
2022/01/07 06:13:19;;;;;;;;;1.00;1.00;;;;;;;;5047846;28;45533;-73
2022/01/07 06:15:44;;;;;;;;;0.00;0.00;;;;;;;;5047282;28;45570;-74
2022/01/07 06:18:10;;;;;;;;;2.00;1.00;;;;;;;;5049175;28;45751;-73
2022/01/07 06:20:35;;;;;;;;;1.75;1.00;;;;;;;;5046829;28;46260;-73
2022/01/07 06:23:00;;;;;;;;;0.50;0.25;;;;;;;;5047597;28;45520;-73
2022/01/07 06:25:26;;;;;;;;;2.00;1.00;;;;;;;;5048855;28;45493;-73
2022/01/07 06:27:51;;;;;;;;;1.50;0.00;;;;;;;;5045198;28;45614;-72
2022/01/07 06:30:17;;;;;;;;;2.00;1.00;;;;;;;;5047813;28;45621;-73
2022/01/07 06:32:42;;;;;;;;;2.00;1.00;;;;;;;;5047852;28;45413;-73
2022/01/07 06:35:09;;;;;;;;;3.50;3.00;;;;;;;;5046234;28;45401;-73
2022/01/07 06:37:35;;;;;;;;;4.75;2.00;;;;;;;;5047893;28;45370;-73
2022/01/07 06:40:00;;;;;;;;;2.00;2.00;;;;;;;;5043372;28;45414;-73
2022/01/07 06:42:25;;;;;;;;;2.00;1.00;;;;;;;;5048747;28;45385;-73
2022/01/07 06:44:51;;;;;;;;;1.75;1.25;;;;;;;;5046404;28;46554;-73
2022/01/07 06:47:16;;;;;;;;;5.00;2.25;;;;;;;;5047796;28;45617;-73
2022/01/07 06:49:41;;;;;;;;;2.00;1.00;;;;;;;;5047387;28;45590;-72
2022/01/07 06:52:07;;;;;;;;;1.75;1.00;;;;;;;;5051498;28;45413;-73
2022/01/07 06:54:32;;;;;;;;;2.75;2.25;;;;;;;;5046882;28;45857;-73
2022/01/07 06:56:58;;;;;;;;;1.75;1.75;;;;;;;;5048102;28;45948;-74
2022/01/07 06:59:24;;;;;;;;;2.50;2.50;;;;;;;;5047811;28;45537;-73
2022/01/07 07:01:49;;;;;;;;;0.50;0.50;;;;;;;;5045953;28;45402;-74
2022/01/07 07:04:15;;;;;;;;;0.00;0.00;;;;;;;;5047799;28;45426;-73
2022/01/07 07:06:41;;;;;;;;;2.00;2.00;;;;;;;;5047538;28;45422;-74
2022/01/07 07:09:07;;;;;;;;;2.00;1.00;;;;;;;;5046140;28;46177;-73
2022/01/07 07:11:32;;;;;;;;;2.75;2.00;;;;;;;;5048907;28;45541;-73
2022/01/07 07:13:57;;;;;;;;;2.75;1.00;;;;;;;;5047176;28;46289;-73
2022/01/07 07:16:23;;;;;;;;;1.00;1.00;;;;;;;;5047085;28;45594;-74
2022/01/07 07:18:49;;;;;;;;;1.00;1.00;;;;;;;;5047964;28;45894;-72
2022/01/07 07:21:14;;;;;;;;;1.75;1.00;;;;;;;;5048882;28;45764;-73
2022/01/07 07:23:40;;;;;;;;;3.00;2.50;;;;;;;;5046825;28;45907;-73
2022/01/07 07:26:06;;;;;;;;;26.25;24.25;;;;;;;;5040921;28;45386;-73
2022/01/07 07:28:33;;;;;;;;;6.00;4.50;;;;;;;;5038014;28;45998;-73
2022/01/07 07:31:00;;;;;;;;;6.25;4.25;;;;;;;;5038128;28;45525;-74
2022/01/07 07:38:39;;;;;;;;;17.00;16.00;;;;;;;;5037897;28;45825;-74
2022/01/07 07:41:08;;;;;;;;;8.25;8.25;;;;;;;;5037639;28;45572;-73
2022/01/07 07:43:34;;;;;;;;;30.25;28.00;;;;;;;;5037879;28;45462;-73
2022/01/07 07:46:00;;;;;;;;;13.00;12.00;;;;;;;;5039800;28;45457;-74
2022/01/07 07:48:25;;;;;;;;;40.00;35.00;;;;;;;;5037741;28;45478;-74
2022/01/07 07:50:51;;;;;;;;;11.00;9.00;;;;;;;;5038866;28;45343;-74
2022/01/07 07:53:16;;;;;;;;;18.50;15.50;;;;;;;;5039373;28;45536;-74
2022/01/07 07:55:41;;;;;;;;;7.00;5.75;;;;;;;;5038971;28;45393;-74
2022/01/07 07:58:07;;;;;;;;;7.00;7.00;;;;;;;;5038551;28;45379;-73
2022/01/07 08:00:32;;;;;;;;;3.00;2.25;;;;;;;;5040749;28;45258;-74
2022/01/07 08:02:58;;;;;;;;;6.50;3.00;;;;;;;;5047682;28;45448;-73
2022/01/07 08:05:24;;;;;;;;;12.75;11.75;;;;;;;;5046826;28;45454;-73
2022/01/07 08:07:49;;;;;;;;;15.75;14.50;;;;;;;;5055564;28;45451;-73
2022/01/07 08:10:22;;;;;;;;;8.00;8.00;;;;;;;;5060072;28;45389;-73
2022/01/07 08:12:53;;;;;;;;;13.00;12.75;;;;;;;;5057842;28;45433;-77
2022/01/07 08:18:03;;;;;;;;;3.00;3.00;;;;;;;;5057018;28;45990;-73
2022/01/07 08:20:28;;;;;;;;;4.00;4.00;;;;;;;;5056865;28;45413;-73
2022/01/07 08:22:55;;;;;;;;;6.00;6.00;;;;;;;;5056889;28;45394;-72
2022/01/07 08:25:20;;;;;;;;;3.25;2.50;;;;;;;;5057525;28;45406;-72
2022/01/07 08:27:46;;;;;;;;;3.00;3.00;;;;;;;;5057109;28;45889;-72
2022/01/07 08:30:15;;;;;;;;;10.75;9.00;;;;;;;;5057522;28;45296;-72
2022/01/07 08:35:25;;;;;;;;;5.50;3.75;;;;;;;;5055300;28;45500;-74
2022/01/07 08:37:50;;;;;;;;;2.75;2.25;;;;;;;;5056176;28;45477;-73
2022/01/07 08:40:15;;;;;;;;;4.50;3.75;;;;;;;;5055921;28;45496;-71
2022/01/07 08:42:41;;;;;;;;;9.00;8.75;;;;;;;;5056217;28;45512;-74
2022/01/07 08:45:06;;;;;;;;;17.50;16.50;;;;;;;;5056278;28;45435;-71
2022/01/07 08:47:32;;;;;;;;;17.00;11.25;;;;;;;;5056075;28;45961;-72
2022/01/07 08:49:57;;;;;;;;;26.50;24.50;;;;;;;;5056217;28;45481;-74
2022/01/07 08:52:23;;;;;;;;;26.25;24.50;;;;;;;;5056174;28;45368;-73
2022/01/07 08:54:50;;;;;;;;;22.25;19.50;;;;;;;;5056214;28;45437;-75
2022/01/07 08:57:16;;;;;;;;;36.50;31.50;;;;;;;;5056114;28;46227;-73
2022/01/07 08:59:41;;;;;;;;;25.75;20.25;;;;;;;;5055685;28;45350;-76
2022/01/07 09:02:07;;;;;;;;;32.75;26.50;;;;;;;;5057009;28;45419;-77
2022/01/07 09:04:32;;;;;;;;;32.00;30.50;;;;;;;;5057319;28;45365;-76
2022/01/07 09:06:57;;;;;;;;;21.25;20.50;;;;;;;;5056275;28;45494;-75
2022/01/07 09:09:23;;;;;;;;;47.75;39.00;;;;;;;;5089245;27;45536;-76
2022/01/07 09:11:49;;;;;;;;;27.25;25.25;;;;;;;;5056831;28;46057;-78
2022/01/07 09:14:15;;;;;;;;;8.00;8.00;;;;;;;;5056909;28;45557;-77
2022/01/07 09:16:40;;;;;;;;;6.00;6.00;;;;;;;;5056270;28;45371;-77
2022/01/07 09:19:05;;;;;;;;;7.25;7.00;;;;;;;;5056522;28;45402;-78
2022/01/07 09:21:31;;;;;;;;;8.25;8.25;;;;;;;;5056572;28;45505;-72
2022/01/07 09:23:56;;;;;;;;;14.75;11.50;;;;;;;;5089165;27;45539;-72
2022/01/07 09:26:21;;;;;;;;;11.25;10.50;;;;;;;;5056447;28;46291;-78
2022/01/07 09:28:47;;;;;;;;;8.50;8.50;;;;;;;;5056686;28;45638;-78
2022/01/07 09:31:14;;;;;;;;;13.75;12.25;;;;;;;;5056439;28;45353;-73
2022/01/07 09:33:39;;;;;;;;;16.00;15.00;;;;;;;;5056484;28;45480;-73
2022/01/07 09:36:04;;;;;;;;;11.00;10.00;;;;;;;;5056532;28;46126;-73
2022/01/07 09:38:30;;;;;;;;;9.00;8.25;;;;;;;;5056926;28;45398;-72
2022/01/07 09:40:55;;;;;;;;;13.50;11.75;;;;;;;;5056681;28;45311;-73
2022/01/07 09:43:21;;;;;;;;;14.25;12.50;;;;;;;;5056737;28;45331;-74
2022/01/07 09:45:46;;;;;;;;;3.00;3.00;;;;;;;;5056297;28;46128;-76
2022/01/07 09:48:12;;;;;;;;;7.00;6.00;;;;;;;;5055942;28;45485;-79
2022/01/07 09:50:37;;;;;;;;;14.75;11.00;;;;;;;;5055806;28;45355;-76
2022/01/07 09:53:13;;;;;;;;;9.25;8.00;;;;;;;;5056620;28;45524;-76
2022/01/07 09:55:39;;;;;;;;;13.50;11.00;;;;;;;;5055979;28;45606;-76
2022/01/07 09:58:05;;;;;;;;;14.75;13.25;;;;;;;;5056299;28;45473;-75
2022/01/07 10:00:32;;;;;;;;;21.00;18.75;;;;;;;;5056682;28;45366;-76
2022/01/07 10:02:59;;;;;;;;;33.25;27.75;;;;;;;;5056317;28;45594;-76
2022/01/07 10:05:24;;;;;;;;;5.75;5.25;;;;;;;;5055964;28;46327;-76
2022/01/07 10:07:49;;;;;;;;;2.75;2.00;;;;;;;;5055858;28;45499;-76
2022/01/07 10:10:17;;;;;;;;;64.00;48.00;;;;;;;;5056184;28;45380;-76
2022/01/07 10:12:50;;;;;;;;;17.00;16.50;;;;;;;;5059297;28;45442;-73
2022/01/07 10:15:16;;;;;;;;;74.50;59.75;;;;;;;;5059241;28;46198;-73
2022/01/07 10:17:52;;;;;;;;;36.25;32.00;;;;;;;;5059574;28;45386;-73
2022/01/07 10:20:21;;;;;;;;;11.25;10.00;;;;;;;;5059598;28;45310;-73
2022/01/07 10:22:48;;;;;;;;;61.50;51.25;;;;;;;;5059646;28;45753;-77
2022/01/07 10:25:19;;;;;;;;;53.00;44.50;;;;;;;;5059364;28;45589;-77
2022/01/07 10:27:44;;;;;;;;;12.00;11.75;;;;;;;;5059257;28;45563;-73
2022/01/07 10:30:11;;;;;;;;;3.50;3.00;;;;;;;;5059356;28;45313;-74
2022/01/07 10:32:37;;;;;;;;;3.25;3.25;;;;;;;;5059773;28;45437;-73
2022/01/07 10:35:10;;;;;;;;;5.75;4.25;;;;;;;;5058912;28;45343;-73
2022/01/07 10:37:45;;;;;;;;;4.00;3.00;;;;;;;;5059488;28;45481;-73
2022/01/07 10:40:28;;;;;;;;;3.50;3.00;;;;;;;;5059349;28;45332;-73
2022/01/07 10:42:55;;;;;;;;;1.33;1.00;;;;;;;;5059273;28;45486;-73
2022/01/07 10:45:20;;;;;;;;;2.67;2.00;;;;;;;;5058990;28;46119;-74
2022/01/07 10:47:49;;;;;;;;;4.50;4.00;;;;;;;;5058828;28;45783;-73
2022/01/07 10:50:14;;;;;;;;;1.00;0.33;;;;;;;;5059321;28;45392;-72
2022/01/07 10:52:40;;;;;;;;;43.00;35.25;;;;;;;;5059302;28;45516;-77
2022/01/07 10:55:13;;;;;;;;;15.50;14.25;;;;;;;;5059105;28;45486;-77
2022/01/07 10:57:44;;;;;;;;;42.50;34.25;;;;;;;;5059205;28;45385;-76
2022/01/07 11:00:09;;;;;;;;;14.25;13.00;;;;;;;;5092174;27;45318;-76
2022/01/07 11:02:35;;;;;;;;;13.50;12.00;;;;;;;;5059269;28;45161;-78
2022/01/07 11:05:01;;;;;;;;;34.75;32.25;;;;;;;;5058748;28;45500;-78
2022/01/07 11:07:28;;;;;;;;;6.00;5.33;;;;;;;;5058505;28;45603;-72
2022/01/07 11:09:55;;;;;;;;;4.00;4.00;;;;;;;;5058760;28;45450;-72
2022/01/07 11:12:20;;;;;;;;;1.00;0.33;;;;;;;;5059100;28;45752;-71
2022/01/07 11:14:45;;;;;;;;;2.00;2.00;;;;;;;;5058649;28;45963;-71
2022/01/07 11:17:12;;;;;;;;;3.67;3.67;;;;;;;;5058486;28;45227;-72
2022/01/07 11:19:39;;;;;;;;;4.00;4.00;;;;;;;;5058923;28;45415;-72
2022/01/07 11:22:07;;;;;;;;;3.00;3.00;;;;;;;;5058054;28;45469;-72
2022/01/07 11:24:36;;;;;;;;;4.67;3.67;;;;;;;;5058315;28;46335;-77
2022/01/07 11:27:06;;;;;;;;;2.33;2.00;;;;;;;;5058482;28;45355;-77
2022/01/07 11:29:35;;;;;;;;;5.00;3.67;;;;;;;;5058576;28;45524;-77
2022/01/07 11:32:19;;;;;;;;;2.33;1.00;;;;;;;;5058692;28;45334;-77
2022/01/07 11:34:44;;;;;;;;;0.67;0.33;;;;;;;;5058091;28;46089;-77
2022/01/07 11:37:28;;;;;;;;;5.00;3.00;;;;;;;;5091296;27;45602;-77
2022/01/07 11:39:54;;;;;;;;;1.00;0.67;;;;;;;;5058553;28;45351;-77
2022/01/07 11:42:37;;;;;;;;;1.00;1.00;;;;;;;;5058510;28;45385;-76
2022/01/07 11:45:23;;;;;;;;;1.00;0.00;;;;;;;;5058285;28;45436;-77
2022/01/07 11:47:49;;;;;;;;;3.67;2.00;;;;;;;;5057871;28;45546;-77
2022/01/07 11:50:14;;;;;;;;;3.00;0.00;;;;;;;;5058283;28;45398;-73
2022/01/07 11:52:39;;;;;;;;;2.00;0.00;;;;;;;;5058535;28;45472;-76
2022/01/07 11:55:31;;;;;;;;;2.00;0.00;;;;;;;;5057994;28;46198;-77
2022/01/07 11:57:58;;;;;;;;;6.00;5.00;;;;;;;;5057637;28;45320;-77
2022/01/07 12:00:42;;;;;;;;;1.33;1.00;;;;;;;;5058025;28;45280;-77
2022/01/07 12:03:08;;;;;;;;;2.67;2.00;;;;;;;;5058060;28;45385;-78
2022/01/07 12:05:33;;;;;;;;;3.00;2.67;;;;;;;;5057727;28;45310;-78
2022/01/07 12:07:58;;;;;;;;;3.33;2.00;;;;;;;;5057654;28;45470;-77
2022/01/07 12:10:24;;;;;;;;;4.00;3.00;;;;;;;;5057734;28;45508;-77
2022/01/07 12:12:50;;;;;;;;;2.67;1.33;;;;;;;;5058027;28;45418;-77
2022/01/07 12:15:16;;;;;;;;;4.00;2.67;;;;;;;;5057665;28;46709;-78
2022/01/07 12:17:41;;;;;;;;;1.67;0.00;;;;;;;;5058086;28;45275;-78
2022/01/07 12:20:28;;;;;;;;;4.33;1.33;;;;;;;;5057649;28;45363;-77
2022/01/07 12:22:53;;;;;;;;;5.67;4.67;;;;;;;;5057633;28;45468;-77
2022/01/07 12:25:19;;;;;;;;;3.00;2.00;;;;;;;;5057299;28;45425;-77
2022/01/07 12:27:45;;;;;;;;;2.00;2.00;;;;;;;;5057582;28;45266;-74
2022/01/07 12:30:12;;;;;;;;;3.00;2.00;;;;;;;;5058003;28;45330;-77
2022/01/07 12:32:38;;;;;;;;;4.67;4.00;;;;;;;;5057669;28;45512;-77
2022/01/07 12:35:05;;;;;;;;;6.00;3.00;;;;;;;;5056211;28;46598;-77
2022/01/07 12:37:30;;;;;;;;;4.00;3.67;;;;;;;;5057496;28;45286;-77
2022/01/07 12:39:57;;;;;;;;;3.00;1.00;;;;;;;;5055978;28;45457;-76
2022/01/07 12:42:26;;;;;;;;;2.00;1.00;;;;;;;;5057529;28;45227;-75
2022/01/07 12:44:57;;;;;;;;;5.00;2.00;;;;;;;;5056692;28;46285;-77
2022/01/07 12:47:24;;;;;;;;;7.67;7.00;;;;;;;;5056501;28;45409;-76
2022/01/07 12:49:50;;;;;;;;;4.00;4.00;;;;;;;;5057368;28;45275;-77
2022/01/07 12:52:17;;;;;;;;;1.00;1.00;;;;;;;;5057800;28;45555;-73
2022/01/07 12:55:02;;;;;;;;;65.50;50.50;;;;;;;;5057222;28;46005;-77
2022/01/07 12:57:29;;;;;;;;;3.67;3.00;;;;;;;;5056981;28;45479;-72
2022/01/07 13:00:02;;;;;;;;;2.00;2.00;;;;;;;;5057022;28;45382;-72
2022/01/07 13:02:28;;;;;;;;;1.33;0.00;;;;;;;;5057414;28;45298;-77
2022/01/07 13:04:54;;;;;;;;;1.00;0.00;;;;;;;;5056806;28;45620;-77
2022/01/07 13:07:19;;;;;;;;;5.67;3.67;;;;;;;;5057210;28;45362;-76
2022/01/07 13:09:44;;;;;;;;;2.67;2.00;;;;;;;;5057529;28;45417;-78
2022/01/07 13:12:10;;;;;;;;;3.67;1.00;;;;;;;;5057467;28;45282;-78
2022/01/07 13:14:45;;;;;;;;;3.00;1.67;;;;;;;;5056845;28;45901;-77
2022/01/07 13:17:12;;;;;;;;;2.00;1.00;;;;;;;;5056768;28;45247;-73
2022/01/07 13:19:43;;;;;;;;;4.00;2.00;;;;;;;;5056849;28;45450;-75
2022/01/07 13:22:08;;;;;;;;;4.00;3.00;;;;;;;;5057150;28;45418;-77
2022/01/07 13:24:34;;;;;;;;;1.00;0.00;;;;;;;;5057048;28;45544;-76
2022/01/07 13:27:05;;;;;;;;;1.00;0.67;;;;;;;;5056698;28;45522;-76
2022/01/07 13:29:31;;;;;;;;;1.00;1.00;;;;;;;;5057058;28;45242;-77
2022/01/07 13:31:59;;;;;;;;;3.00;1.00;;;;;;;;5056922;28;45267;-72
2022/01/07 13:34:25;;;;;;;;;6.33;5.00;;;;;;;;5056294;28;45287;-73
2022/01/07 13:36:51;;;;;;;;;0.00;0.00;;;;;;;;5056446;28;45380;-73
2022/01/07 13:39:18;;;;;;;;;3.00;2.00;;;;;;;;5057235;28;45303;-73
2022/01/07 13:41:59;;;;;;;;;1.00;1.00;;;;;;;;5056777;28;45531;-72
2022/01/07 13:44:26;;;;;;;;;4.00;3.00;;;;;;;;5056449;28;46012;-73
2022/01/07 13:46:52;;;;;;;;;3.00;2.67;;;;;;;;5059662;28;45484;-73
2022/01/07 13:49:18;;;;;;;;;0.33;0.00;;;;;;;;5060583;28;45354;-73
2022/01/07 13:51:50;;;;;;;;;1.67;1.67;;;;;;;;5060234;28;45196;-77
2022/01/07 13:54:16;;;;;;;;;5.75;5.00;;;;;;;;5060042;28;45378;-77
2022/01/07 13:57:03;;;;;;;;;2.00;2.00;;;;;;;;5059706;28;45734;-72
2022/01/07 13:59:39;;;;;;;;;7.25;6.00;;;;;;;;5059722;28;45489;-73
2022/01/07 14:02:05;;;;;;;;;4.00;3.00;;;;;;;;5059701;28;45496;-73
2022/01/07 14:04:43;;;;;;;;;4.00;3.00;;;;;;;;5059347;28;45500;-73
2022/01/07 14:07:23;;;;;;;;;2.00;2.00;;;;;;;;5059564;28;45493;-72
2022/01/07 14:10:04;;;;;;;;;2.00;2.00;;;;;;;;5060028;28;45502;-72
2022/01/07 14:12:29;;;;;;;;;17.75;13.75;;;;;;;;5059681;28;45622;-77
2022/01/07 14:15:03;;;;;;;;;8.50;7.50;;;;;;;;5059166;28;45426;-77
2022/01/07 14:17:28;;;;;;;;;8.25;7.00;;;;;;;;5059699;28;45326;-77
2022/01/07 14:19:57;;;;;;;;;3.00;3.00;;;;;;;;5059457;28;45305;-76
2022/01/07 14:22:23;;;;;;;;;6.50;6.00;;;;;;;;5059812;28;45489;-73
2022/01/07 14:24:48;;;;;;;;;8.50;6.75;;;;;;;;5059489;28;45369;-72
2022/01/07 14:27:24;;;;;;;;;15.50;14.25;;;;;;;;5059404;28;45244;-76
2022/01/07 14:29:49;;;;;;;;;9.75;9.75;;;;;;;;5059765;28;45331;-76
2022/01/07 14:32:15;;;;;;;;;6.25;5.00;;;;;;;;5059490;28;45357;-76
2022/01/07 14:34:40;;;;;;;;;7.75;7.50;;;;;;;;5058943;28;45321;-75
2022/01/07 14:37:05;;;;;;;;;17.75;13.00;;;;;;;;5059246;28;45438;-77
2022/01/07 14:39:31;;;;;;;;;18.00;14.50;;;;;;;;5059499;28;45460;-77
2022/01/07 14:41:56;;;;;;;;;16.00;13.00;;;;;;;;5059715;28;45477;-77
2022/01/07 14:44:22;;;;;;;;;7.25;6.50;;;;;;;;5059186;28;46063;-74